CEST,Max TemperatureF,Mean TemperatureF,Min TemperatureF,Max Dew PointF,MeanDew PointF,Min DewpointF,Max Humidity, Mean Humidity, Min Humidity, Max Sea Level PressureIn, Mean Sea Level PressureIn, Min Sea Level PressureIn, Max VisibilityMiles, Mean VisibilityMiles, Min VisibilityMiles, Max Wind SpeedMPH, Mean Wind SpeedMPH, Max Gust SpeedMPH,PrecipitationIn, CloudCover, Events, WindDirDegrees
2012-9-1,77,64,50,66,59,55,83,63,50,30.04,29.98,29.92,6,6,6,9,4,,0.00,5,Rain,308
2012-9-2,87,74,62,66,57,52,88,56,35,30.06,30.02,29.95,6,6,6,8,4,,0.00,3,,359
2012-9-3,78,73,68,68,66,61,94,80,57,29.98,29.95,29.92,6,6,1,15,5,,0.00,5,Rain,108
2012-9-4,82,73,64,68,65,61,94,75,54,29.95,29.91,29.89,6,6,6,13,4,20,0.00,4,Rain,137
2012-9-5,80,74,68,68,66,64,94,78,61,29.95,29.92,29.89,6,6,2,12,4,,0.00,4,Rain-Thunderstorm,150
2012-9-6,80,74,69,70,67,63,100,78,58,30.06,29.97,29.92,6,6,5,12,5,,0.00,4,Rain,303
2012-9-7,86,78,69,64,61,57,78,58,37,30.12,30.09,30.06,6,6,6,12,6,,0.00,1,,26
2012-9-8,84,76,69,68,63,59,83,62,45,30.12,30.07,30.04,6,6,6,10,4,,0.00,2,,13
2012-9-9,82,75,68,70,68,64,88,78,58,30.06,30.05,30.04,6,4,2,10,3,,0.00,3,,159
2012-9-10,84,75,66,68,66,57,94,74,40,30.09,30.06,30.04,6,5,3,12,3,,0.00,1,,265
2012-9-11,84,75,66,70,66,61,88,74,45,30.06,30.04,30.01,6,5,3,12,4,,0.00,2,,330
2012-9-12,80,74,69,70,67,66,88,76,61,30.04,29.93,29.80,6,5,3,10,4,,0.00,2,,205
2012-9-13,75,70,66,68,64,61,94,80,69,29.80,29.62,29.53,6,6,2,13,6,28,0.00,5,Rain,131
2012-9-14,73,66,60,61,59,55,94,80,53,29.65,29.53,29.47,6,6,2,12,8,,0.00,5,Rain-Thunderstorm,70
2012-9-15,80,70,60,63,59,57,88,68,47,29.89,29.76,29.65,6,6,6,14,7,,0.00,2,,39
2012-9-16,80,72,64,57,54,52,68,54,39,29.95,29.92,29.89,6,6,6,13,6,,0.00,2,,40
2012-9-17,78,70,62,61,55,50,78,57,39,30.01,29.97,29.92,6,6,6,12,5,,0.00,1,,335
2012-9-18,78,70,62,64,59,55,82,68,54,30.01,29.99,29.95,6,6,6,9,3,,0.00,3,,320
2012-9-19,77,70,64,66,63,61,88,78,65,29.98,29.94,29.92,6,6,5,9,3,,0.00,2,,193
2012-9-20,78,72,66,66,59,46,94,68,44,30.15,30.00,29.89,6,6,3,14,5,,0.00,2,Rain-Thunderstorm,58
2012-9-21,77,70,62,59,50,43,77,51,36,30.18,30.15,30.12,6,6,6,10,7,,0.00,3,,9
2012-9-22,77,68,60,63,59,52,88,69,41,30.12,30.09,30.06,6,6,6,9,3,,0.00,1,,192
2012-9-23,84,73,62,63,60,57,83,61,45,30.09,30.05,29.98,6,6,6,6,3,,0.00,1,,337
2012-9-24,86,76,66,73,63,61,89,63,43,29.98,29.91,29.83,6,6,6,13,4,,0.00,3,,210
2012-9-25,80,76,71,73,66,59,94,74,54,29.98,29.94,29.86,6,6,4,10,5,,0.00,2,,215
2012-9-26,86,80,73,70,63,55,88,60,35,30.01,29.98,29.95,6,6,6,12,5,,0.00,5,,203
2012-9-27,86,80,73,68,63,55,74,55,37,30.04,30.01,29.95,6,6,6,10,6,,0.00,1,,219
2012-9-28,95,82,69,63,55,45,73,45,19,30.06,30.03,30.01,6,6,6,6,3,,0.00,2,,329
2012-9-29,93,82,71,61,53,45,65,39,21,30.04,29.99,29.95,6,6,6,10,5,,0.00,3,,270
2012-9-30,86,77,68,64,61,57,69,57,40,30.06,30.00,29.92,6,6,6,15,6,,0.00,4,Rain-Thunderstorm,1